TimeAEDT,TemperatureF,Dew PointF,Humidity,Sea Level PressureIn,VisibilityMPH,Wind Direction,Wind SpeedMPH,Gust SpeedMPH,PrecipitationIn,Events,Conditions,WindDirDegrees,DateUTC
12:00 AM,60,59,95,30.01,3,Calm,Calm,,,,,,2013-04-01 13:00:00
12:00 AM,60.8,59.0,94,30.01,3.1,Calm,Calm,-,N/A,,Scattered Clouds,0,2013-04-01 13:00:00
12:29 AM,59.0,59.0,100,29.98,6.2,Calm,Calm,-,N/A,,Overcast,0,2013-04-01 13:29:00
12:30 AM,59.0,59.0,100,29.98,6.2,Calm,Calm,-,N/A,,Overcast,0,2013-04-01 13:30:00
1:00 AM,59.0,59.0,100,29.98,6.2,Calm,Calm,-,N/A,,Overcast,0,2013-04-01 14:00:00
1:30 AM,60.8,59.0,94,29.98,6.2,Calm,Calm,-,N/A,,Overcast,0,2013-04-01 14:30:00
2:00 AM,61,60,94,29.99,,Calm,Calm,,,,,,2013-04-01 15:00:00
2:00 AM,60.8,59.0,94,29.98,6.2,Calm,Calm,-,N/A,,Overcast,0,2013-04-01 15:00:00
2:30 AM,60.8,59.0,94,29.98,6.2,Calm,Calm,-,N/A,,Overcast,0,2013-04-01 15:30:00
3:00 AM,60,60,99,29.98,,Calm,Calm,,,,,,2013-04-01 16:00:00
3:00 AM,60.8,59.0,94,29.98,6.2,Calm,Calm,-,N/A,,Mostly Cloudy,0,2013-04-01 16:00:00
3:30 AM,59.0,59.0,100,29.98,6.2,NW,4.6,-,N/A,,Mostly Cloudy,320,2013-04-01 16:30:00
4:00 AM,59.0,57.2,94,29.95,6.2,NNW,2.3,-,N/A,,Mostly Cloudy,330,2013-04-01 17:00:00
4:30 AM,59.0,59.0,100,29.95,6.2,WNW,4.6,-,N/A,,Mostly Cloudy,300,2013-04-01 17:30:00
5:00 AM,60,59,96,29.97,,NW,5.8,,,,,310,2013-04-01 18:00:00
5:00 AM,59.0,59.0,100,29.95,6.2,NW,5.8,-,N/A,,Mostly Cloudy,310,2013-04-01 18:00:00
5:30 AM,59.0,57.2,94,29.98,6.2,West,4.6,-,N/A,,Scattered Clouds,270,2013-04-01 18:30:00
6:00 AM,58,57,97,29.98,16,WNW,6.9,,,,Partly Cloudy,300,2013-04-01 19:00:00
6:00 AM,59.0,57.2,94,29.98,-9999.0,WNW,6.9,-,N/A,,Clear,300,2013-04-01 19:00:00
6:30 AM,59.0,59.0,100,29.98,-9999.0,WNW,8.1,-,N/A,,Clear,300,2013-04-01 19:30:00
7:00 AM,59.0,57.2,94,29.98,-9999.0,WNW,6.9,-,N/A,,Clear,290,2013-04-01 20:00:00
7:30 AM,59.0,57.2,94,29.98,-9999.0,WNW,5.8,-,N/A,,Clear,290,2013-04-01 20:30:00
8:00 AM,61,59,92,30.00,,WNW,8.1,,,,,300,2013-04-01 21:00:00
8:00 AM,60.8,59.0,94,29.98,-9999.0,WNW,8.1,-,N/A,,Clear,300,2013-04-01 21:00:00
8:30 AM,62.6,60.8,94,30.01,-9999.0,WNW,11.5,-,N/A,,Clear,300,2013-04-01 21:30:00
9:00 AM,64,60,84,30.01,19,WNW,11.5,,,,Partly Cloudy,300,2013-04-01 22:00:00
9:00 AM,64.4,60.8,88,30.01,-9999.0,WNW,11.5,-,N/A,,Clear,300,2013-04-01 22:00:00
9:30 AM,66.2,60.8,83,30.01,-9999.0,WNW,11.5,-,N/A,,Clear,300,2013-04-01 22:30:00
10:00 AM,69.8,59.0,68,30.01,-9999.0,NW,9.2,-,N/A,,Clear,310,2013-04-01 23:00:00
10:30 AM,69.8,57.2,64,30.01,-9999.0,West,6.9,-,N/A,,Clear,280,2013-04-01 23:30:00
11:00 AM,72,55,45,30.01,,West,8.1,,,,,260,2013-04-02 00:00:00
11:00 AM,71.6,55.4,57,30.01,-9999.0,West,8.1,-,N/A,,Clear,260,2013-04-02 00:00:00
11:30 AM,73.4,53.6,50,30.01,-9999.0,WSW,8.1,-,N/A,,Clear,250,2013-04-02 00:30:00
12:00 PM,75,53,36,30.00,19,West,5.8,,,,Partly Cloudy,280,2013-04-02 01:00:00
12:00 PM,75.2,53.6,47,29.98,-9999.0,West,5.8,-,N/A,,Clear,280,2013-04-02 01:00:00
12:30 PM,73.4,55.4,53,29.98,6.2,SSE,9.2,-,N/A,,Partly Cloudy,160,2013-04-02 01:30:00
1:00 PM,75.2,53.6,47,29.98,6.2,SSE,9.2,-,N/A,,Partly Cloudy,150,2013-04-02 02:00:00
1:30 PM,75.2,53.6,47,29.95,6.2,SSE,8.1,-,N/A,,Partly Cloudy,160,2013-04-02 02:30:00
2:00 PM,75,53,35,29.96,,SE,9.2,,,,,140,2013-04-02 03:00:00
2:00 PM,75.2,53.6,47,29.95,6.2,SE,9.2,-,N/A,,Partly Cloudy,140,2013-04-02 03:00:00
2:30 PM,75.2,53.6,47,29.95,6.2,SSE,10.4,-,N/A,,Partly Cloudy,150,2013-04-02 03:30:00
3:00 PM,74,53,37,29.94,19,SE,11.5,,,,Partly Cloudy,140,2013-04-02 04:00:00
3:00 PM,73.4,53.6,50,29.92,6.2,SE,11.5,-,N/A,,Partly Cloudy,140,2013-04-02 04:00:00
3:30 PM,75.2,53.6,47,29.92,6.2,SE,12.7,-,N/A,,Partly Cloudy,140,2013-04-02 04:30:00
4:00 PM,75.2,51.8,44,29.92,6.2,SSE,12.7,-,N/A,,Partly Cloudy,150,2013-04-02 05:00:00
4:30 PM,73.4,53.6,50,29.92,6.2,SSE,13.8,-,N/A,,Partly Cloudy,150,2013-04-02 05:30:00
5:00 PM,74,55,41,29.95,,SE,11.5,,,,,140,2013-04-02 06:00:00
5:00 PM,73.4,55.4,53,29.95,6.2,SE,11.5,-,N/A,,Partly Cloudy,140,2013-04-02 06:00:00
5:30 PM,73.4,55.4,53,29.95,6.2,SSE,11.5,-,N/A,,Partly Cloudy,150,2013-04-02 06:30:00
6:00 PM,72,56,47,29.96,,SSE,10.4,,,,,150,2013-04-02 07:00:00
6:00 PM,71.6,55.4,57,29.95,-9999.0,SSE,10.4,-,N/A,,Clear,150,2013-04-02 07:00:00
6:30 PM,69.8,57.2,64,29.95,-9999.0,SE,8.1,-,N/A,,Clear,140,2013-04-02 07:30:00
7:00 PM,68.0,59.0,73,29.95,-9999.0,SE,6.9,-,N/A,,Clear,130,2013-04-02 08:00:00
7:30 PM,68.0,59.0,73,29.98,-9999.0,ESE,5.8,-,N/A,,Clear,120,2013-04-02 08:30:00
8:00 PM,64,59,79,29.99,,NE,4.6,,,,,50,2013-04-02 09:00:00
8:00 PM,64.4,59.0,83,29.98,-9999.0,NE,4.6,-,N/A,,Clear,50,2013-04-02 09:00:00
8:30 PM,62.6,59.0,88,29.98,-9999.0,Calm,Calm,-,N/A,,Clear,0,2013-04-02 09:30:00
9:00 PM,62,59,86,30.01,,Calm,Calm,,,,,,2013-04-02 10:00:00
9:00 PM,62.6,59.0,88,30.01,-9999.0,Calm,Calm,-,N/A,,Clear,0,2013-04-02 10:00:00
9:30 PM,60.8,59.0,94,30.01,-9999.0,North,3.5,-,N/A,,Clear,360,2013-04-02 10:30:00
10:00 PM,60.8,59.0,94,30.01,6.2,Calm,Calm,-,N/A,,Unknown,0,2013-04-02 11:00:00
10:30 PM,60.8,57.2,88,30.04,6.2,Calm,Calm,-,N/A,,Unknown,0,2013-04-02 11:30:00
11:00 PM,61,58,86,30.04,,Calm,Calm,,,,,,2013-04-02 12:00:00
11:00 PM,60.8,57.2,88,30.04,6.2,Calm,Calm,-,N/A,,Mostly Cloudy,0,2013-04-02 12:00:00
11:30 PM,60.8,59.0,94,30.04,6.2,Calm,Calm,-,N/A,,Mostly Cloudy,0,2013-04-02 12:30:00